TimeCDT,TemperatureF,Dew PointF,Humidity,Sea Level PressureIn,VisibilityMPH,Wind Direction,Wind SpeedMPH,Gust SpeedMPH,PrecipitationIn,Events,Conditions,WindDirDegrees,DateUTC
12:54 AM,54.0,48.0,80,30.03,10.0,NW,8.1,-,N/A,,Overcast,320,2013-05-23 05:54:00
1:01 AM,53.6,48.2,82,30.04,10.0,NW,10.4,-,N/A,,Overcast,320,2013-05-23 06:01:00
1:12 AM,53.6,48.2,82,30.04,10.0,NNW,11.5,18.4,N/A,,Overcast,330,2013-05-23 06:12:00
1:43 AM,53.6,48.2,82,30.04,8.0,North,11.5,-,N/A,,Overcast,350,2013-05-23 06:43:00
1:54 AM,52.0,50.0,93,30.04,7.0,North,6.9,-,0.00,Rain,Light Rain,360,2013-05-23 06:54:00
2:17 AM,51.8,50.0,94,30.05,9.0,North,9.2,-,0.00,,Overcast,350,2013-05-23 07:17:00
2:54 AM,53.1,48.9,86,30.05,10.0,North,8.1,-,0.00,,Overcast,350,2013-05-23 07:54:00
3:09 AM,53.6,48.2,82,30.05,10.0,North,10.4,-,N/A,,Overcast,360,2013-05-23 08:09:00
3:54 AM,53.1,48.0,83,30.06,10.0,NNW,11.5,-,N/A,,Overcast,340,2013-05-23 08:54:00
4:54 AM,53.1,48.0,83,30.09,10.0,North,13.8,-,N/A,,Overcast,350,2013-05-23 09:54:00
5:54 AM,52.0,46.9,83,30.11,10.0,North,8.1,-,N/A,,Overcast,360,2013-05-23 10:54:00
6:39 AM,53.6,46.4,77,30.13,10.0,North,11.5,-,N/A,,Overcast,360,2013-05-23 11:39:00
6:54 AM,52.0,46.9,83,30.14,10.0,NNE,13.8,-,N/A,,Overcast,20,2013-05-23 11:54:00
7:54 AM,52.0,48.0,86,30.17,10.0,North,11.5,-,N/A,,Overcast,360,2013-05-23 12:54:00
8:54 AM,52.0,48.0,86,30.20,6.0,NNE,6.9,-,N/A,,Overcast,30,2013-05-23 13:54:00
9:01 AM,51.8,48.2,88,30.20,6.0,NE,6.9,-,N/A,,Overcast,40,2013-05-23 14:01:00
9:20 AM,53.6,48.2,82,30.20,7.0,NNE,9.2,-,N/A,,Overcast,30,2013-05-23 14:20:00
9:54 AM,55.0,48.0,77,30.20,10.0,NE,12.7,-,N/A,,Overcast,40,2013-05-23 14:54:00
10:54 AM,55.9,48.9,77,30.20,10.0,NE,13.8,19.6,N/A,,Overcast,40,2013-05-23 15:54:00
11:54 AM,57.9,48.9,72,30.19,10.0,NE,12.7,-,N/A,,Overcast,50,2013-05-23 16:54:00
12:04 PM,57.2,50.0,77,30.19,10.0,NE,13.8,21.9,N/A,,Overcast,50,2013-05-23 17:04:00
12:54 PM,63.0,52.0,67,30.20,10.0,ENE,10.4,18.4,N/A,,Mostly Cloudy,70,2013-05-23 17:54:00
1:15 PM,62.6,51.8,68,30.21,10.0,East,5.8,-,N/A,,Scattered Clouds,90,2013-05-23 18:15:00
1:54 PM,64.9,50.0,58,30.20,10.0,East,5.8,-,N/A,,Clear,90,2013-05-23 18:54:00
2:54 PM,69.1,48.0,47,30.19,10.0,ENE,12.7,19.6,N/A,,Partly Cloudy,70,2013-05-23 19:54:00
3:54 PM,70.0,48.0,46,30.18,10.0,ESE,10.4,-,N/A,,Scattered Clouds,110,2013-05-23 20:54:00
4:54 PM,72.0,46.9,41,30.17,10.0,ESE,11.5,18.4,N/A,,Clear,110,2013-05-23 21:54:00
5:54 PM,72.0,43.0,35,30.17,10.0,East,8.1,16.1,N/A,,Clear,100,2013-05-23 22:54:00
6:54 PM,71.1,44.1,38,30.17,10.0,ESE,13.8,-,N/A,,Clear,120,2013-05-23 23:54:00
7:54 PM,68.0,45.0,43,30.17,10.0,SE,9.2,-,N/A,,Clear,130,2013-05-24 00:54:00
8:54 PM,64.0,44.1,48,30.17,10.0,SE,6.9,-,N/A,,Clear,130,2013-05-24 01:54:00
9:54 PM,61.0,44.1,54,30.19,10.0,SE,4.6,-,N/A,,Clear,130,2013-05-24 02:54:00
10:54 PM,60.1,43.0,53,30.22,10.0,ESE,6.9,-,N/A,,Clear,120,2013-05-24 03:54:00
11:54 PM,55.9,44.1,64,30.23,10.0,SSE,5.8,-,N/A,,Clear,160,2013-05-24 04:54:00